createdAt,value
2023-03-21T00:02:12.797Z,100.00
2023-03-21T00:04:50.865Z,100.00
2023-03-21T00:07:18.637Z,100.00
2023-03-21T00:09:45.832Z,100.00
2023-03-21T00:12:14.244Z,100.00
2023-03-21T00:14:41.492Z,100.00
2023-03-21T00:17:10.824Z,100.00
2023-03-21T00:19:38.525Z,100.00
2023-03-21T00:22:08.553Z,100.00
2023-03-21T00:24:37.033Z,100.00
2023-03-21T00:29:52.261Z,100.00
2023-03-21T00:32:20.930Z,100.00
2023-03-21T00:35:01.487Z,100.00
2023-03-21T00:37:37.091Z,100.00
2023-03-21T00:40:22.925Z,100.00
2023-03-21T00:42:52.739Z,100.00
2023-03-21T00:45:21.973Z,100.00
2023-03-21T00:47:49.236Z,100.00
2023-03-21T00:50:16.697Z,100.00
2023-03-21T00:52:44.419Z,100.00
2023-03-21T00:55:16.485Z,100.00
2023-03-21T00:57:49.946Z,100.00
2023-03-21T01:00:19.373Z,100.00
2023-03-21T01:03:04.415Z,100.00
2023-03-21T01:05:59.810Z,100.00
2023-03-21T01:08:35.210Z,100.00
2023-03-21T01:11:13.373Z,100.00
2023-03-21T01:13:44.184Z,100.00
2023-03-21T01:16:24.000Z,100.00
2023-03-21T01:18:51.305Z,100.00
2023-03-21T01:21:18.915Z,100.00
2023-03-21T01:23:46.281Z,100.00
2023-03-21T01:26:14.548Z,100.00
2023-03-21T01:28:43.306Z,100.00
2023-03-21T01:31:13.448Z,100.00
2023-03-21T01:33:41.385Z,100.00
2023-03-21T01:36:14.535Z,100.00
2023-03-21T01:38:43.066Z,100.00
2023-03-21T01:41:43.075Z,100.00
2023-03-21T01:44:20.088Z,100.00
2023-03-21T01:47:11.483Z,100.00
2023-03-21T01:49:46.254Z,100.00
2023-03-21T01:52:36.624Z,100.00
2023-03-21T01:55:12.464Z,100.00
2023-03-21T01:58:06.340Z,100.00
2023-03-21T02:00:53.961Z,100.00
2023-03-21T02:03:50.081Z,100.00
2023-03-21T02:06:46.772Z,100.00
2023-03-21T02:09:33.462Z,100.00
2023-03-21T02:12:02.116Z,100.00
2023-03-21T02:14:34.491Z,100.00
2023-03-21T02:17:27.250Z,100.00
2023-03-21T02:20:27.107Z,100.00
2023-03-21T02:23:44.189Z,100.00
2023-03-21T02:26:42.904Z,100.00
2023-03-21T02:29:37.846Z,100.00
2023-03-21T02:32:41.180Z,100.00
2023-03-21T02:35:28.478Z,100.00
2023-03-21T02:38:18.204Z,100.00
2023-03-21T02:40:45.386Z,100.00
2023-03-21T02:43:23.445Z,100.00
2023-03-21T02:45:57.987Z,100.00
2023-03-21T02:48:49.768Z,100.00
2023-03-21T02:51:22.779Z,100.00
2023-03-21T02:54:21.974Z,100.00
2023-03-21T02:56:45.572Z,100.00
2023-03-21T02:59:15.720Z,100.00
2023-03-21T03:01:43.512Z,100.00
2023-03-21T03:04:28.605Z,100.00
2023-03-21T03:06:58.755Z,100.00
2023-03-21T03:09:43.152Z,100.00
2023-03-21T03:12:31.628Z,100.00
2023-03-21T03:15:17.816Z,100.00
2023-03-21T03:18:11.942Z,100.00
2023-03-21T03:21:00.774Z,100.00
2023-03-21T03:24:12.283Z,100.00
2023-03-21T03:26:46.883Z,100.00
2023-03-21T03:29:17.780Z,100.00
2023-03-21T03:32:27.127Z,100.00
2023-03-21T03:34:56.346Z,100.00
2023-03-21T03:37:32.334Z,100.00
2023-03-21T03:40:10.875Z,100.00
2023-03-21T03:42:52.395Z,100.00
2023-03-21T03:45:35.366Z,100.00
2023-03-21T03:48:15.611Z,100.00
2023-03-21T03:51:01.359Z,100.00
2023-03-21T03:53:46.253Z,100.00
2023-03-21T03:56:14.082Z,100.00
2023-03-21T03:58:45.580Z,100.00
2023-03-21T04:01:15.420Z,100.00
2023-03-21T04:03:50.735Z,100.00
2023-03-21T04:06:22.027Z,100.00
2023-03-21T04:08:51.397Z,100.00
2023-03-21T04:11:19.626Z,100.00
2023-03-21T04:13:52.010Z,100.00
2023-03-21T04:16:23.381Z,100.00
2023-03-21T04:18:51.036Z,100.00
2023-03-21T04:21:19.925Z,100.00
2023-03-21T04:23:47.200Z,100.00
2023-03-21T04:26:14.495Z,100.00
2023-03-21T04:28:51.489Z,100.00
2023-03-21T04:31:42.695Z,100.00
2023-03-21T04:34:12.954Z,100.00
2023-03-21T04:36:46.225Z,100.00
2023-03-21T04:39:14.943Z,100.00
2023-03-21T04:41:46.249Z,100.00
2023-03-21T04:44:15.719Z,100.00
2023-03-21T04:46:43.330Z,100.00
2023-03-21T04:49:11.639Z,100.00
2023-03-21T04:51:39.307Z,100.00
2023-03-21T04:56:38.099Z,100.00
2023-03-21T04:59:14.095Z,100.00
2023-03-21T05:01:43.520Z,100.00
2023-03-21T05:04:12.936Z,100.00
2023-03-21T05:06:42.303Z,100.00
2023-03-21T05:09:09.799Z,100.00
2023-03-21T05:11:39.236Z,100.00
2023-03-21T05:18:11.410Z,100.00
2023-03-21T05:20:54.118Z,100.00
2023-03-21T05:23:23.052Z,100.00
2023-03-21T05:25:51.219Z,100.00
2023-03-21T05:28:36.703Z,100.00
2023-03-21T05:31:04.582Z,100.00
2023-03-21T05:33:32.424Z,100.00
2023-03-21T05:35:59.627Z,100.00
2023-03-21T05:38:31.099Z,100.00
2023-03-21T05:40:59.257Z,100.00
2023-03-21T05:43:26.710Z,100.00
2023-03-21T05:45:53.917Z,100.00
2023-03-21T05:48:21.456Z,100.00
2023-03-21T05:51:21.174Z,100.00
2023-03-21T05:53:48.866Z,100.00
2023-03-21T05:56:16.940Z,100.00
2023-03-21T05:58:49.876Z,100.00
2023-03-21T06:01:17.901Z,100.00
2023-03-21T06:03:53.345Z,100.00
2023-03-21T06:06:25.164Z,100.00
2023-03-21T06:08:55.275Z,100.00
2023-03-21T06:11:27.238Z,100.00
2023-03-21T06:14:17.974Z,100.00
2023-03-21T06:16:48.878Z,100.00
2023-03-21T06:19:16.538Z,100.00
2023-03-21T06:21:55.937Z,100.00
2023-03-21T06:24:23.067Z,100.00
2023-03-21T06:26:50.292Z,100.00
2023-03-21T06:29:17.676Z,100.00
2023-03-21T06:31:49.037Z,100.00
2023-03-21T06:34:16.738Z,100.00
2023-03-21T06:36:46.693Z,100.00
2023-03-21T06:39:16.118Z,100.00
2023-03-21T06:41:44.398Z,100.00
2023-03-21T06:44:11.488Z,100.00
2023-03-21T06:46:48.221Z,100.00
2023-03-21T06:49:19.630Z,100.00
2023-03-21T06:51:46.924Z,99.41
2023-03-21T06:54:18.905Z,98.08
2023-03-21T06:56:56.615Z,97.75
2023-03-21T06:59:30.313Z,99.35
2023-03-21T07:02:03.739Z,98.71
2023-03-21T07:04:33.340Z,98.89
2023-03-21T07:07:00.504Z,97.58
2023-03-21T07:09:28.343Z,96.55
2023-03-21T07:11:59.919Z,95.76
2023-03-21T07:14:37.564Z,94.73
2023-03-21T07:17:04.797Z,95.04
2023-03-21T07:19:31.942Z,94.00
2023-03-21T07:22:01.379Z,94.15
2023-03-21T07:24:29.201Z,92.11
2023-03-21T07:26:56.370Z,91.95
2023-03-21T07:29:23.450Z,89.95
2023-03-21T07:31:50.664Z,88.64
2023-03-21T07:34:18.874Z,88.26
2023-03-21T07:36:46.108Z,88.49
2023-03-21T07:39:13.307Z,85.86
2023-03-21T07:41:40.521Z,86.75
2023-03-21T07:44:18.293Z,86.95
2023-03-21T07:46:46.201Z,86.37
2023-03-21T07:49:13.280Z,86.86
2023-03-21T07:51:40.484Z,86.00
2023-03-21T07:54:07.741Z,84.59
2023-03-21T07:56:35.043Z,84.56
2023-03-21T07:59:02.188Z,85.07
2023-03-21T08:01:29.293Z,84.30
2023-03-21T08:03:56.437Z,86.19
2023-03-21T08:06:28.079Z,85.23
2023-03-21T08:08:55.398Z,84.22
2023-03-21T08:11:23.660Z,83.91
2023-03-21T08:13:51.572Z,83.40
2023-03-21T08:16:18.855Z,82.33
2023-03-21T08:18:46.109Z,81.89
2023-03-21T08:21:13.223Z,81.72
2023-03-21T08:23:40.396Z,81.57
2023-03-21T08:26:07.786Z,79.35
2023-03-21T08:28:36.600Z,79.77
2023-03-21T08:31:13.926Z,78.92
2023-03-21T08:33:41.196Z,78.41
2023-03-21T08:36:09.240Z,78.57
2023-03-21T08:38:36.917Z,76.99
2023-03-21T08:41:04.278Z,77.46
2023-03-21T08:43:31.396Z,76.73
2023-03-21T08:46:04.737Z,75.41
2023-03-21T08:48:31.891Z,74.02
2023-03-21T08:51:01.892Z,74.04
2023-03-21T08:53:29.381Z,73.22
2023-03-21T08:55:56.666Z,73.65
2023-03-21T08:58:23.884Z,74.37
2023-03-21T09:00:52.054Z,72.25
2023-03-21T09:03:20.082Z,70.67
2023-03-21T09:05:47.315Z,71.37
2023-03-21T09:08:14.421Z,73.29
2023-03-21T09:10:41.509Z,70.97
2023-03-21T09:13:08.907Z,68.41
2023-03-21T09:15:36.337Z,67.71
2023-03-21T09:18:13.038Z,67.49
2023-03-21T09:20:43.077Z,68.32
2023-03-21T09:23:11.439Z,67.88
2023-03-21T09:25:39.090Z,67.73
2023-03-21T09:28:06.840Z,68.24
2023-03-21T09:30:36.599Z,66.19
2023-03-21T09:33:13.259Z,66.84
2023-03-21T09:35:41.629Z,65.63
2023-03-21T09:38:08.987Z,65.26
2023-03-21T09:40:56.498Z,64.93
2023-03-21T09:43:34.525Z,64.94
2023-03-21T09:46:34.122Z,64.90
2023-03-21T09:49:09.861Z,65.36
2023-03-21T09:51:42.157Z,62.53
2023-03-21T09:54:37.789Z,62.86
2023-03-21T09:57:34.151Z,62.68
2023-03-21T10:00:09.898Z,62.42
2023-03-21T10:02:47.344Z,63.61
2023-03-21T10:05:31.889Z,63.27
2023-03-21T10:08:05.428Z,63.33
2023-03-21T10:10:34.929Z,61.83
2023-03-21T10:13:02.025Z,61.53
2023-03-21T10:15:29.199Z,61.87
2023-03-21T10:18:06.212Z,60.87
2023-03-21T10:20:36.189Z,60.05
2023-03-21T10:23:07.200Z,60.63
2023-03-21T10:25:41.284Z,58.83
2023-03-21T10:28:16.826Z,59.51
2023-03-21T10:30:56.693Z,58.18
2023-03-21T10:33:32.584Z,59.70
2023-03-21T10:36:11.720Z,58.04
2023-03-21T10:38:45.324Z,56.36
2023-03-21T10:41:12.468Z,57.00
2023-03-21T10:43:41.017Z,56.59
2023-03-21T10:46:12.422Z,56.40
2023-03-21T10:48:46.292Z,55.45
2023-03-21T10:51:20.898Z,54.67
2023-03-21T10:53:55.722Z,52.88
2023-03-21T10:56:29.374Z,53.61
2023-03-21T10:58:59.985Z,53.94
2023-03-21T11:01:50.380Z,53.94
2023-03-21T11:04:22.068Z,54.66
2023-03-21T11:07:01.641Z,55.45
2023-03-21T11:09:50.078Z,55.68
2023-03-21T11:12:40.656Z,56.35
2023-03-21T11:15:31.497Z,56.09
2023-03-21T11:18:00.587Z,53.96
2023-03-21T11:20:31.342Z,53.92
2023-03-21T11:22:58.462Z,54.37
2023-03-21T11:25:36.047Z,53.64
2023-03-21T11:28:12.385Z,54.25
2023-03-21T11:30:50.041Z,52.88
2023-03-21T11:33:19.059Z,53.12
2023-03-21T11:36:02.206Z,52.04
2023-03-21T11:38:36.013Z,51.56
2023-03-21T11:41:04.910Z,51.31
2023-03-21T11:43:36.116Z,49.43
2023-03-21T11:46:14.365Z,50.21
2023-03-21T11:48:48.784Z,51.41
2023-03-21T11:51:27.401Z,51.54
2023-03-21T11:54:03.211Z,51.66
2023-03-21T11:56:36.403Z,50.95
2023-03-21T11:59:31.956Z,49.83
2023-03-21T12:02:40.543Z,50.74
2023-03-21T12:05:20.115Z,51.00
2023-03-21T12:08:29.159Z,49.54
2023-03-21T12:11:05.364Z,50.91
2023-03-21T12:13:35.837Z,48.54
2023-03-21T12:16:09.121Z,48.93
2023-03-21T12:18:54.911Z,50.03
2023-03-21T12:21:50.720Z,47.73
2023-03-21T12:24:31.246Z,48.22
2023-03-21T12:27:24.789Z,49.49
2023-03-21T12:30:09.840Z,50.47
2023-03-21T12:33:00.313Z,48.92
2023-03-21T12:35:33.401Z,48.38
2023-03-21T12:38:15.905Z,48.44
2023-03-21T12:41:12.045Z,48.75
2023-03-21T12:44:20.259Z,51.51
2023-03-21T12:47:11.246Z,48.75
2023-03-21T12:49:49.856Z,48.92
2023-03-21T12:52:24.049Z,48.04
2023-03-21T12:54:58.673Z,49.30
2023-03-21T12:57:30.807Z,49.41
2023-03-21T13:00:09.858Z,49.48
2023-03-21T13:03:02.768Z,47.78
2023-03-21T13:05:41.047Z,49.13
2023-03-21T13:08:26.247Z,46.87
2023-03-21T13:10:55.643Z,45.64
2023-03-21T13:13:59.348Z,44.61
2023-03-21T13:16:40.752Z,44.04
2023-03-21T13:19:24.539Z,45.97
2023-03-21T13:22:05.680Z,45.78
2023-03-21T13:24:32.802Z,46.50
2023-03-21T13:27:16.412Z,44.88
2023-03-21T13:29:50.439Z,44.24
2023-03-21T13:32:30.801Z,42.99
2023-03-21T13:35:01.355Z,41.78
2023-03-21T13:37:33.688Z,43.56
2023-03-21T13:40:10.842Z,42.41
2023-03-21T13:42:45.554Z,43.65
2023-03-21T13:45:33.954Z,44.10
2023-03-21T13:48:06.343Z,39.54
2023-03-21T13:50:49.597Z,41.03
2023-03-21T13:53:16.670Z,42.91
2023-03-21T13:55:46.565Z,41.11
2023-03-21T13:58:33.307Z,39.13
2023-03-21T14:01:23.515Z,40.42
2023-03-21T14:04:15.508Z,42.58
2023-03-21T14:06:55.166Z,41.73
2023-03-21T14:09:32.414Z,43.00
2023-03-21T14:12:07.432Z,41.86
2023-03-21T14:14:40.272Z,43.22
2023-03-21T14:17:34.368Z,44.73
2023-03-21T14:20:14.329Z,44.65
2023-03-21T14:22:41.772Z,44.10
2023-03-21T14:25:14.626Z,44.75
2023-03-21T14:27:52.577Z,42.41
2023-03-21T14:30:30.222Z,40.62
2023-03-21T14:32:59.659Z,41.21
2023-03-21T14:35:34.006Z,40.91
2023-03-21T14:38:04.660Z,40.40
2023-03-21T14:40:31.797Z,38.16
2023-03-21T14:43:07.300Z,37.50
2023-03-21T14:45:37.143Z,37.08
2023-03-21T14:48:13.541Z,33.63
2023-03-21T14:50:55.494Z,31.15
2023-03-21T14:53:32.025Z,33.39
2023-03-21T14:56:23.582Z,32.08
2023-03-21T14:58:52.955Z,32.03
2023-03-21T15:01:32.506Z,31.82
2023-03-21T15:04:01.580Z,31.28
2023-03-21T15:06:28.673Z,30.58
2023-03-21T15:09:01.448Z,30.86
2023-03-21T15:11:38.834Z,32.34
2023-03-21T15:14:08.790Z,32.21
2023-03-21T15:16:36.850Z,31.40
2023-03-21T15:19:05.251Z,29.58
2023-03-21T15:21:37.903Z,29.56
2023-03-21T15:24:13.785Z,31.79
2023-03-21T15:26:45.436Z,33.30
2023-03-21T15:29:14.847Z,35.78
2023-03-21T15:31:42.492Z,37.19
2023-03-21T15:34:32.520Z,37.75
2023-03-21T15:37:06.912Z,38.75
2023-03-21T15:39:37.123Z,39.34
2023-03-21T15:42:22.336Z,41.13
2023-03-21T15:44:53.207Z,42.15
2023-03-21T15:47:49.864Z,43.61
2023-03-21T15:50:29.406Z,45.64
2023-03-21T15:53:01.150Z,46.35
2023-03-21T15:55:36.167Z,46.85
2023-03-21T15:58:13.185Z,47.43
2023-03-21T16:00:43.901Z,48.09
2023-03-21T16:03:19.093Z,49.12
2023-03-21T16:06:05.483Z,51.36
2023-03-21T16:08:35.792Z,52.03
2023-03-21T16:11:16.513Z,53.21
2023-03-21T16:13:43.834Z,53.28
2023-03-21T16:16:17.059Z,55.11
2023-03-21T16:18:44.324Z,54.62
2023-03-21T16:21:17.003Z,55.25
2023-03-21T16:23:44.720Z,56.02
2023-03-21T16:26:17.464Z,55.39
2023-03-21T16:28:46.158Z,56.89
2023-03-21T16:31:16.423Z,57.77
2023-03-21T16:33:45.747Z,57.84
2023-03-21T16:36:30.961Z,57.97
2023-03-21T16:38:58.839Z,59.56
2023-03-21T16:41:27.263Z,60.65
2023-03-21T16:43:54.831Z,60.44
2023-03-21T16:46:26.470Z,61.24
2023-03-21T16:48:56.293Z,61.26
2023-03-21T16:51:31.961Z,62.61
2023-03-21T16:53:59.924Z,62.80
2023-03-21T16:56:31.061Z,62.53
2023-03-21T16:58:58.343Z,62.83
2023-03-21T17:01:29.954Z,63.34
2023-03-21T17:04:00.504Z,63.68
2023-03-21T17:06:30.191Z,63.84
2023-03-21T17:08:58.832Z,65.02
2023-03-21T17:11:31.397Z,65.71
2023-03-21T17:13:58.525Z,66.29
2023-03-21T17:16:27.656Z,66.69
2023-03-21T17:18:55.597Z,67.45
2023-03-21T17:21:28.354Z,68.48
2023-03-21T17:23:56.179Z,68.89
2023-03-21T17:26:28.686Z,68.54
2023-03-21T17:28:56.919Z,69.67
2023-03-21T17:31:26.503Z,70.00
2023-03-21T17:33:53.655Z,70.76
2023-03-21T17:36:31.966Z,71.34
2023-03-21T17:39:00.016Z,73.08
2023-03-21T17:41:27.824Z,73.78
2023-03-21T17:43:55.884Z,74.52
2023-03-21T17:46:27.825Z,74.89
2023-03-21T17:48:56.724Z,74.93
2023-03-21T17:51:26.154Z,74.85
2023-03-21T17:53:53.336Z,75.03
2023-03-21T17:56:26.111Z,75.72
2023-03-21T17:59:01.856Z,75.66
2023-03-21T18:01:31.785Z,75.85
2023-03-21T18:04:02.102Z,76.25
2023-03-21T18:06:29.418Z,76.55
2023-03-21T18:08:56.558Z,76.52
2023-03-21T18:11:24.520Z,77.73
2023-03-21T18:13:59.426Z,79.58
2023-03-21T18:16:33.956Z,80.23
2023-03-21T18:19:01.063Z,80.32
2023-03-21T18:21:32.183Z,79.87
2023-03-21T18:24:00.220Z,79.81
2023-03-21T18:26:27.425Z,79.93
2023-03-21T18:29:47.380Z,80.59
2023-03-21T18:31:43.854Z,81.59
2023-03-21T18:34:14.226Z,83.48
2023-03-21T18:36:42.755Z,84.62
2023-03-21T18:39:10.033Z,86.01
2023-03-21T18:41:37.116Z,87.78
2023-03-21T18:44:13.557Z,86.42
2023-03-21T18:46:47.229Z,85.90
2023-03-21T18:49:58.940Z,85.62
2023-03-21T18:52:02.885Z,85.42
2023-03-21T18:54:30.228Z,85.25
2023-03-21T18:59:45.057Z,84.06
2023-03-21T19:02:14.703Z,84.04
2023-03-21T19:04:42.821Z,84.81
2023-03-21T19:07:10.250Z,85.83
2023-03-21T19:10:13.892Z,85.98
2023-03-21T19:12:26.226Z,86.80
2023-03-21T19:14:54.233Z,86.19
2023-03-21T19:20:11.919Z,86.65
2023-03-21T19:22:39.233Z,87.64
2023-03-21T19:25:07.928Z,87.26
2023-03-21T19:27:36.134Z,87.39
2023-03-21T19:30:14.429Z,87.88
2023-03-21T19:32:43.568Z,87.35
2023-03-21T19:35:11.138Z,87.30
2023-03-21T19:37:38.220Z,87.63
2023-03-21T19:40:07.035Z,87.38
2023-03-21T19:42:36.242Z,86.93
2023-03-21T19:45:06.836Z,87.24
2023-03-21T19:47:33.943Z,87.96
2023-03-21T19:52:48.132Z,87.36
2023-03-21T19:55:15.389Z,87.68
2023-03-21T19:57:42.563Z,88.97
2023-03-21T20:00:11.421Z,88.88
2023-03-21T20:02:39.354Z,88.61
2023-03-21T20:05:07.056Z,88.53
2023-03-21T20:07:34.304Z,88.73
2023-03-21T20:10:01.454Z,88.63
2023-03-21T20:12:28.675Z,88.22
2023-03-21T20:15:09.574Z,88.48
2023-03-21T20:17:43.244Z,88.80
2023-03-21T20:20:14.453Z,88.52
2023-03-21T20:23:05.670Z,88.95
2023-03-21T20:25:31.157Z,88.78
2023-03-21T20:28:14.757Z,88.91
2023-03-21T20:31:19.494Z,88.50
2023-03-21T20:33:48.342Z,88.99
2023-03-21T20:36:39.460Z,89.13
2023-03-21T20:39:02.688Z,88.58
2023-03-21T20:41:30.290Z,88.70
2023-03-21T20:44:39.533Z,88.15
2023-03-21T20:46:48.055Z,88.33
2023-03-21T20:49:15.477Z,88.60
2023-03-21T20:54:30.364Z,89.61
2023-03-21T20:56:57.461Z,89.08
2023-03-21T20:59:27.579Z,88.51
2023-03-21T21:01:57.183Z,89.07
2023-03-21T21:04:43.142Z,90.12
2023-03-21T21:07:15.740Z,90.47
2023-03-21T21:09:46.264Z,90.52
2023-03-21T21:12:15.081Z,91.30
2023-03-21T21:14:43.573Z,90.92
2023-03-21T21:17:27.680Z,91.28
2023-03-21T21:19:57.942Z,91.53
2023-03-21T21:22:25.081Z,91.51
2023-03-21T21:24:52.335Z,91.62
2023-03-21T21:27:19.993Z,92.35
2023-03-21T21:29:49.832Z,92.16
2023-03-21T21:32:18.673Z,92.89
2023-03-21T21:34:45.970Z,93.16
2023-03-21T21:37:13.123Z,93.55
2023-03-21T21:39:41.922Z,93.60
2023-03-21T21:42:09.062Z,94.27
2023-03-21T21:44:37.301Z,94.47
2023-03-21T21:47:08.457Z,95.70
2023-03-21T21:49:36.083Z,96.39
2023-03-21T21:52:04.021Z,96.08
2023-03-21T21:54:33.986Z,95.62
2023-03-21T21:57:01.174Z,95.05
2023-03-21T21:59:28.421Z,95.20
2023-03-21T22:01:56.650Z,95.67
2023-03-21T22:04:27.628Z,95.61
2023-03-21T22:06:56.218Z,95.57
2023-03-21T22:09:23.582Z,95.46
2023-03-21T22:11:50.878Z,95.36
2023-03-21T22:14:17.992Z,96.45
2023-03-21T22:16:46.746Z,96.99
2023-03-21T22:19:13.960Z,97.55
2023-03-21T22:21:41.166Z,98.24
2023-03-21T22:24:08.333Z,98.80
2023-03-21T22:26:35.470Z,98.93
2023-03-21T22:29:02.643Z,98.87
2023-03-21T22:31:29.810Z,99.19
2023-03-21T22:33:56.992Z,99.28
2023-03-21T22:36:24.933Z,98.73
2023-03-21T22:38:52.038Z,98.59
2023-03-21T22:41:19.188Z,98.58
2023-03-21T22:43:46.335Z,98.24
2023-03-21T22:46:13.526Z,98.00
2023-03-21T22:48:41.465Z,98.33
2023-03-21T22:51:08.880Z,98.45
2023-03-21T22:53:36.382Z,97.38
2023-03-21T22:56:03.583Z,97.35
2023-03-21T22:58:30.699Z,96.90
2023-03-21T23:01:01.945Z,96.12
2023-03-21T23:03:29.125Z,96.42
2023-03-21T23:06:01.129Z,97.17
2023-03-21T23:08:28.722Z,96.34
2023-03-21T23:10:56.324Z,95.90
2023-03-21T23:13:23.745Z,96.45
2023-03-21T23:15:51.016Z,95.70
2023-03-21T23:18:18.265Z,96.32
2023-03-21T23:20:49.217Z,96.66
2023-03-21T23:23:16.656Z,96.90
2023-03-21T23:25:43.977Z,96.63
2023-03-21T23:28:11.134Z,96.41
2023-03-21T23:30:39.089Z,96.31
2023-03-21T23:33:06.455Z,96.04
2023-03-21T23:35:38.312Z,96.57
2023-03-21T23:38:05.931Z,96.42
2023-03-21T23:40:32.999Z,96.11
2023-03-21T23:43:00.177Z,96.06
2023-03-21T23:45:27.275Z,96.06
2023-03-21T23:47:54.452Z,96.70
2023-03-21T23:50:21.616Z,96.88
2023-03-21T23:52:48.754Z,96.97
2023-03-21T23:55:15.950Z,97.00
2023-03-21T23:57:43.769Z,97.19
